Maniitsoq

KL  EN  DA
ASIAQ
Weather Now GREENLAND SURVEY
Updated [WGT/WGST] Temperature [°C] Wind [m/s] Air pressure [hPa] Relative humidity [%] Precipitation [mm]
Present Wind chill Speed Max
02.05 19:00-0,1-5,05,0 ⇙6,410201001,2
02.05 18:000,0-4,64,5 ⇙5,510191001,0
02.05 17:000,0-4,74,6 ⇐5,810191000,7
02.05 16:00-0,1-4,13,7 ⇖4,810191001,6
02.05 15:00-0,4-5,55,1 ⇙6,51019991,2
02.05 14:00-0,7-6,05,3 ⇙6,71019991,8
02.05 13:00-0,9-6,35,4 ⇙6,71019991,7
02.05 12:00-1,2-5,84,2 ⇙5,01019991,2
02.05 11:00-1,4-6,44,7 ⇙5,91019990,8
02.05 10:00-1,5-6,44,5 ⇙6,21019990,6
02.05 09:00-1,6-6,34,1 ⇙5,31019990,7
02.05 08:00-1,8-6,23,6 ⇙4,710201001,0
02.05 07:00-1,8-6,23,6 ⇐4,810201001,4
02.05 06:00-1,9-6,84,3 ⇐6,010201001,2
02.05 05:00-1,9-5,02,3 ⇖3,21020990,7
02.05 04:00-2,1-5,62,6 ⇖3,01020990,7
02.05 03:00-2,1-6,13,0 ⇑3,51021990,8
02.05 02:00-2,1-7,14,3 ⇑5,11021980,6
02.05 01:00-2,0-6,13,3 ⇖3,91021970,3
02.05 00:00-1,8-6,84,4 ⇑5,51021950,2
01.05 23:00-1,4-5,33,1 ⇖4,01021970,2
01.05 22:00-1,5-5,83,6 ⇖4,01021970,4
01.05 21:00-1,2-5,33,5 ⇑4,01021910,1
01.05 20:00-0,8-5,84,8 ⇑5,81021880,0
01.05 19:00-0,5-5,55,0 ⇑6,11021790,0
Position: (65.416667,-52.933333)

[Back]